Aérodrome :
LOGIN :

S'inscrire | Disclaimer

   EN    FR    IT 

 










Légende :    VFR   VFR Marginal   IFR   IFR Intensif   IFR Très Intensif
Visi : 
Plafond : 
>= 8 km
>= 3000ft
5 à 8 km
1000 à 3000 ft
1500m à 5 km
500 à 1000 ft
800 à 1500m
200 à 500 ft
< 800m
< 200 ft
Symboles :   Orages  Brouillard  Fortes neiges  Fortes précipitations  Vent > 20 kt
SIGMETs :   Divers  Orages  Givrage  Turbulence  Onde Orograph.  Cendres Volcan.






- Altitude de l'aérodrome : 183 ft


LIBA - Amendola Foggia

DERNIER METAR :
  • 212255Z 28004KT CAVOK 02/01 Q1037 RMK FEW FEW200 VIS MIN 9999 WIND THR11 30006KT WIND THR29 /////KT BLU

METARs EXPIRÉS :
  • 212155Z 29005KT CAVOK 03/01 Q1037 RMK FEW FEW200 VIS MIN 9999 WIND THR11 29005KT WIND THR29 /////KT BLU
  • 212055Z 27006KT CAVOK 03/02 Q1037 RMK SCT SCT200 VIS MIN 9999 WIND THR11 27003KT WIND THR29 /////KT BLU

TAF TAF LIBA
Valide du 22 à 00h jusqu'au 22 à 09h UTC


212300Z 2200/2209 29008KT CAVOK
BECMG 2202/2204 5000 BR SCT020



MET'MAP, la Météo Aéronautique d'un coup d'oeil ! - Copyright ORBIFLY Décembre 2007 - Disclaimer

ORBIFLY MET'MAP TEAM :

Programmation & Développement : Alexandra Zaïnal
Sur une idée originale de : Baudouin d'Aumeries
Assistance à la programmation : Marc-Olivier Méhu
Soutien technique & logistique : Manuel Goepfert

Contact : metmap@orbifly.com




SOURCES & CREDITS :

   NOAA